createdAt,value
2024-04-19T00:00:31.638Z,9.92
2024-04-19T00:03:18.777Z,9.87
2024-04-19T00:06:05.831Z,9.77
2024-04-19T00:08:52.807Z,9.92
2024-04-19T00:11:39.858Z,9.72
2024-04-19T00:14:26.925Z,9.72
2024-04-19T00:17:14.139Z,9.88
2024-04-19T00:20:01.482Z,9.70
2024-04-19T00:22:48.481Z,9.91
2024-04-19T00:25:36.347Z,9.96
2024-04-19T00:28:24.692Z,9.94
2024-04-19T00:31:11.708Z,10.16
2024-04-19T00:33:58.812Z,10.15
2024-04-19T00:36:46.119Z,9.87
2024-04-19T00:39:33.408Z,9.74
2024-04-19T00:42:20.557Z,9.62
2024-04-19T00:45:40.012Z,9.69
2024-04-19T00:48:28.606Z,9.95
2024-04-19T00:51:16.174Z,10.18
2024-04-19T00:54:03.510Z,9.91
2024-04-19T00:56:52.798Z,9.84
2024-04-19T00:59:40.218Z,10.07
2024-04-19T01:02:27.592Z,9.96
2024-04-19T01:05:14.841Z,9.91
2024-04-19T01:08:02.298Z,10.03
2024-04-19T01:10:50.446Z,10.10
2024-04-19T01:13:37.598Z,10.03
2024-04-19T01:16:25.364Z,9.93
2024-04-19T01:19:13.546Z,9.98
2024-04-19T01:22:00.644Z,9.84
2024-04-19T01:24:51.356Z,9.51
2024-04-19T01:27:38.618Z,9.81
2024-04-19T01:30:27.392Z,10.07
2024-04-19T01:33:14.865Z,9.87
2024-04-19T01:36:02.262Z,9.84
2024-04-19T01:38:49.422Z,9.76
2024-04-19T01:41:36.621Z,9.80
2024-04-19T01:44:23.795Z,9.84
2024-04-19T01:47:10.816Z,10.02
2024-04-19T01:49:57.820Z,10.41
2024-04-19T01:52:44.907Z,10.29
2024-04-19T01:55:31.938Z,10.18
2024-04-19T01:58:19.009Z,10.16
2024-04-19T02:01:06.304Z,10.06
2024-04-19T02:03:53.591Z,10.25
2024-04-19T02:06:40.797Z,10.29
2024-04-19T02:09:28.918Z,10.22
2024-04-19T02:12:15.949Z,10.06
2024-04-19T02:15:03.045Z,10.17
2024-04-19T02:17:51.562Z,10.24
2024-04-19T02:20:38.614Z,10.47
2024-04-19T02:23:37.984Z,10.36
2024-04-19T02:26:25.150Z,10.26
2024-04-19T02:29:30.861Z,10.49
2024-04-19T02:32:17.917Z,10.69
2024-04-19T02:35:05.070Z,10.76
2024-04-19T02:37:52.153Z,10.59
2024-04-19T02:40:39.286Z,10.53
2024-04-19T02:43:26.269Z,10.69
2024-04-19T02:46:13.389Z,10.64
2024-04-19T02:49:00.420Z,10.60
2024-04-19T02:51:47.606Z,10.64
2024-04-19T02:54:34.633Z,10.56
2024-04-19T02:57:21.686Z,10.44
2024-04-19T03:00:09.364Z,10.54
2024-04-19T03:02:56.346Z,10.55
2024-04-19T03:05:44.748Z,10.66
2024-04-19T03:08:31.768Z,10.90
2024-04-19T03:11:18.762Z,10.71
2024-04-19T03:14:05.859Z,10.82
2024-04-19T03:16:53.400Z,11.01
2024-04-19T03:19:41.032Z,10.57
2024-04-19T03:22:28.037Z,10.70
2024-04-19T03:25:15.104Z,10.89
2024-04-19T03:28:02.048Z,10.89
2024-04-19T03:30:49.078Z,10.92
2024-04-19T03:33:36.309Z,11.13
2024-04-19T03:36:23.381Z,10.89
2024-04-19T03:39:10.470Z,10.94
2024-04-19T03:41:57.987Z,10.96
2024-04-19T03:45:03.637Z,10.89
2024-04-19T03:47:50.731Z,11.06
2024-04-19T03:50:37.740Z,10.98
2024-04-19T03:53:24.762Z,11.01
2024-04-19T03:56:11.769Z,11.07
2024-04-19T03:58:58.765Z,11.07
2024-04-19T04:01:48.863Z,10.91
2024-04-19T04:04:35.897Z,11.12
2024-04-19T04:07:24.480Z,11.03
2024-04-19T04:10:12.515Z,11.26
2024-04-19T04:12:59.701Z,10.97
2024-04-19T04:15:47.343Z,11.05
2024-04-19T04:18:36.652Z,10.99
2024-04-19T04:21:27.061Z,10.97
2024-04-19T04:24:15.336Z,10.73
2024-04-19T04:27:02.526Z,11.17
2024-04-19T04:29:51.416Z,11.26
2024-04-19T04:32:38.534Z,11.35
2024-04-19T04:35:30.461Z,11.23
2024-04-19T04:38:17.618Z,11.03
2024-04-19T04:41:09.703Z,11.21
2024-04-19T04:43:56.728Z,10.92
2024-04-19T04:46:43.860Z,11.22
2024-04-19T04:49:32.328Z,11.04
2024-04-19T04:52:19.454Z,11.23
2024-04-19T04:55:07.658Z,11.42
2024-04-19T04:57:54.773Z,11.31
2024-04-19T05:00:42.032Z,11.51
2024-04-19T05:03:29.136Z,11.55
2024-04-19T05:06:16.639Z,11.43
2024-04-19T05:09:04.610Z,11.30
2024-04-19T05:11:51.772Z,11.43
2024-04-19T05:14:38.907Z,11.55
2024-04-19T05:17:25.965Z,11.23
2024-04-19T05:20:13.164Z,11.29
2024-04-19T05:23:00.353Z,11.43
2024-04-19T05:25:47.431Z,11.46
2024-04-19T05:28:36.069Z,11.22
2024-04-19T05:31:23.157Z,11.21
2024-04-19T05:34:10.302Z,11.12
2024-04-19T05:36:57.445Z,11.52
2024-04-19T05:39:44.752Z,11.43
2024-04-19T05:42:34.633Z,11.20
2024-04-19T05:45:21.999Z,11.15
2024-04-19T05:48:09.359Z,11.27
2024-04-19T05:50:56.971Z,11.23
2024-04-19T05:53:44.188Z,11.38
2024-04-19T05:56:31.430Z,11.48
2024-04-19T05:59:18.778Z,11.70
2024-04-19T06:02:06.459Z,11.81
2024-04-19T06:04:53.489Z,12.01
2024-04-19T06:07:40.582Z,11.95
2024-04-19T06:10:27.624Z,11.84
2024-04-19T06:13:15.616Z,11.91
2024-04-19T06:16:02.777Z,11.82
2024-04-19T06:18:50.055Z,11.59
2024-04-19T06:21:37.359Z,11.66
2024-04-19T06:24:25.271Z,11.81
2024-04-19T06:27:13.990Z,11.93
2024-04-19T06:30:01.069Z,11.62
2024-04-19T06:32:48.130Z,11.68
2024-04-19T06:35:37.004Z,11.62
2024-04-19T06:38:24.248Z,11.43
2024-04-19T06:41:11.531Z,11.55
2024-04-19T06:43:59.313Z,11.69
2024-04-19T06:46:46.832Z,11.61
2024-04-19T06:49:35.690Z,11.66
2024-04-19T06:52:22.957Z,11.54
2024-04-19T06:55:10.193Z,11.65
2024-04-19T06:57:57.430Z,11.65
2024-04-19T07:00:59.780Z,11.62
2024-04-19T07:03:53.642Z,11.97
2024-04-19T07:06:43.638Z,12.08
2024-04-19T07:09:32.256Z,11.73
2024-04-19T07:12:19.482Z,11.79
2024-04-19T07:15:07.059Z,11.26
2024-04-19T07:17:54.128Z,11.44
2024-04-19T07:20:44.293Z,11.19
2024-04-19T07:23:32.528Z,11.53
2024-04-19T07:26:19.917Z,11.72
2024-04-19T07:29:07.289Z,11.72
2024-04-19T07:31:56.851Z,11.56
2024-04-19T07:34:44.027Z,11.56
2024-04-19T07:37:32.251Z,11.67
2024-04-19T07:40:19.236Z,11.54
2024-04-19T07:43:06.337Z,11.89
2024-04-19T07:45:53.517Z,11.68
2024-04-19T07:48:41.043Z,11.73
2024-04-19T07:51:28.251Z,11.88
2024-04-19T07:54:15.452Z,11.92
2024-04-19T07:57:02.454Z,11.59
2024-04-19T07:59:49.613Z,11.69
2024-04-19T08:02:36.639Z,11.17
2024-04-19T08:05:25.104Z,10.76
2024-04-19T08:08:12.162Z,10.85
2024-04-19T08:10:59.216Z,10.60
2024-04-19T08:13:46.173Z,10.75
2024-04-19T08:16:33.354Z,10.69
2024-04-19T08:19:20.465Z,10.91
2024-04-19T08:22:07.660Z,10.90
2024-04-19T08:24:55.912Z,10.65
2024-04-19T08:27:43.859Z,10.90
2024-04-19T08:30:31.043Z,11.05
2024-04-19T08:33:18.146Z,11.19
2024-04-19T08:36:06.424Z,11.01
2024-04-19T08:38:53.502Z,11.11
2024-04-19T08:41:40.564Z,11.07
2024-04-19T08:44:29.033Z,11.49
2024-04-19T08:47:17.723Z,11.50
2024-04-19T08:50:05.091Z,11.23
2024-04-19T08:53:09.982Z,11.28
2024-04-19T08:56:00.885Z,11.58
2024-04-19T08:58:50.833Z,11.57
2024-04-19T09:01:38.557Z,11.90
2024-04-19T09:04:25.716Z,12.30
2024-04-19T09:07:12.741Z,12.23
2024-04-19T09:10:04.511Z,12.23
2024-04-19T09:12:53.458Z,11.75
2024-04-19T09:15:42.374Z,11.85
2024-04-19T09:18:29.704Z,11.76
2024-04-19T09:21:17.340Z,11.74
2024-04-19T09:24:07.114Z,11.69
2024-04-19T09:27:11.559Z,11.63
2024-04-19T09:30:03.326Z,11.59
2024-04-19T09:32:52.495Z,11.50
2024-04-19T09:35:39.669Z,11.72
2024-04-19T09:38:27.545Z,11.64
2024-04-19T09:41:16.172Z,11.94
2024-04-19T09:44:04.315Z,11.53
2024-04-19T09:46:55.921Z,11.57
2024-04-19T09:49:46.626Z,11.41
2024-04-19T09:52:39.957Z,11.43
2024-04-19T09:55:40.732Z,11.47
2024-04-19T09:58:29.573Z,11.50
2024-04-19T10:01:17.646Z,11.80
2024-04-19T10:04:10.195Z,11.57
2024-04-19T10:06:58.221Z,11.67
2024-04-19T10:09:46.277Z,11.62
2024-04-19T10:12:35.391Z,11.42
2024-04-19T10:15:23.560Z,11.61
2024-04-19T10:18:10.802Z,11.08
2024-04-19T10:20:57.930Z,10.94
2024-04-19T10:23:47.723Z,11.18
2024-04-19T10:26:34.744Z,11.55
2024-04-19T10:29:22.887Z,11.45
2024-04-19T10:32:09.861Z,11.31
2024-04-19T10:34:57.268Z,10.95
2024-04-19T10:37:44.303Z,10.94
2024-04-19T10:40:31.389Z,11.08
2024-04-19T10:43:18.486Z,11.16
2024-04-19T10:46:05.898Z,11.16
2024-04-19T10:48:54.514Z,10.67
2024-04-19T10:51:42.324Z,10.73
2024-04-19T10:54:29.438Z,10.70
2024-04-19T10:57:16.844Z,10.94
2024-04-19T11:00:04.241Z,10.96
2024-04-19T11:03:02.340Z,11.34
2024-04-19T11:05:58.156Z,11.60
2024-04-19T11:08:46.182Z,12.10
2024-04-19T11:11:39.289Z,11.33
2024-04-19T11:14:26.628Z,11.28
2024-04-19T11:17:13.806Z,11.55
2024-04-19T11:20:01.089Z,11.41
2024-04-19T11:22:48.509Z,11.89
2024-04-19T11:25:37.779Z,11.99
2024-04-19T11:28:24.982Z,11.88
2024-04-19T11:31:12.070Z,10.94
2024-04-19T11:34:01.628Z,10.88
2024-04-19T11:36:49.037Z,10.97
2024-04-19T11:39:36.382Z,11.12
2024-04-19T11:42:23.847Z,10.92
2024-04-19T11:45:12.914Z,10.83
2024-04-19T11:48:00.910Z,11.10
2024-04-19T11:50:48.071Z,11.16
2024-04-19T11:53:35.097Z,10.91
2024-04-19T11:56:22.172Z,11.23
2024-04-19T11:59:09.217Z,10.90
2024-04-19T12:01:57.360Z,11.11
2024-04-19T12:04:45.234Z,11.42
2024-04-19T12:07:33.153Z,11.24
2024-04-19T12:10:22.111Z,11.29
2024-04-19T12:13:50.925Z,10.54
2024-04-19T12:16:37.164Z,10.38
2024-04-19T12:19:25.306Z,11.00
2024-04-19T12:22:13.974Z,10.47
2024-04-19T12:25:03.882Z,10.21
2024-04-19T12:27:51.502Z,10.54
2024-04-19T12:30:38.723Z,10.62
2024-04-19T12:33:25.938Z,10.44
2024-04-19T12:36:12.982Z,10.58
2024-04-19T12:39:00.124Z,10.80
2024-04-19T12:41:47.486Z,11.00
2024-04-19T12:44:34.775Z,10.90
2024-04-19T12:47:22.498Z,10.78
2024-04-19T12:50:09.628Z,10.65
2024-04-19T12:52:56.592Z,10.48
2024-04-19T12:55:43.617Z,10.92
2024-04-19T12:58:30.701Z,10.87
2024-04-19T13:01:17.911Z,11.32
2024-04-19T13:04:06.262Z,11.03
2024-04-19T13:06:53.525Z,10.77
2024-04-19T13:09:40.690Z,10.59
2024-04-19T13:12:27.776Z,10.89
2024-04-19T13:15:15.003Z,10.89
2024-04-19T13:18:03.296Z,11.05
2024-04-19T13:20:50.353Z,11.28
2024-04-19T13:23:37.455Z,11.28
2024-04-19T13:26:25.871Z,11.35
2024-04-19T13:29:12.942Z,11.59
2024-04-19T13:32:00.486Z,12.01
2024-04-19T13:34:47.825Z,11.49
2024-04-19T13:37:35.451Z,10.80
2024-04-19T13:40:22.469Z,10.95
2024-04-19T13:43:09.569Z,10.90
2024-04-19T13:45:58.047Z,10.71
2024-04-19T13:48:45.649Z,10.83
2024-04-19T13:51:33.311Z,10.82
2024-04-19T13:54:20.563Z,10.90
2024-04-19T13:57:07.912Z,11.06
2024-04-19T13:59:55.620Z,11.16
2024-04-19T14:02:42.883Z,11.34
2024-04-19T14:05:30.118Z,10.79
2024-04-19T14:08:17.118Z,10.90
2024-04-19T14:11:04.480Z,10.84
2024-04-19T14:13:51.842Z,10.76
2024-04-19T14:16:38.975Z,11.03
2024-04-19T14:19:26.103Z,10.97
2024-04-19T14:22:13.330Z,11.10
2024-04-19T14:25:00.515Z,11.38
2024-04-19T14:27:48.654Z,10.63
2024-04-19T14:30:35.991Z,9.65
2024-04-19T14:33:23.023Z,9.71
2024-04-19T14:36:10.090Z,9.81
2024-04-19T14:38:57.198Z,9.83
2024-04-19T14:41:47.495Z,9.82
2024-04-19T14:44:34.871Z,9.95
2024-04-19T14:47:22.198Z,9.91
2024-04-19T14:50:09.367Z,10.25
2024-04-19T14:53:04.051Z,10.57
2024-04-19T14:55:58.569Z,10.51
2024-04-19T14:58:52.797Z,10.30
2024-04-19T15:01:48.091Z,10.43
2024-04-19T15:04:35.303Z,10.43
2024-04-19T15:07:23.177Z,10.38
2024-04-19T15:10:10.198Z,10.32
2024-04-19T15:12:57.281Z,10.27
2024-04-19T15:15:44.926Z,10.19
2024-04-19T15:18:32.027Z,10.04
2024-04-19T15:21:20.496Z,10.09
2024-04-19T15:24:08.983Z,10.13
2024-04-19T15:26:56.173Z,10.24
2024-04-19T15:29:43.254Z,10.09
2024-04-19T15:32:33.304Z,10.16
2024-04-19T15:35:27.974Z,10.33
2024-04-19T15:38:15.025Z,10.63
2024-04-19T15:41:05.114Z,10.85
2024-04-19T15:43:53.154Z,10.64
2024-04-19T15:46:41.603Z,11.09
2024-04-19T15:49:28.677Z,11.04
2024-04-19T15:52:15.702Z,11.25
2024-04-19T15:55:03.125Z,10.94
2024-04-19T15:57:50.225Z,10.79
2024-04-19T16:00:39.015Z,10.64
2024-04-19T16:03:26.177Z,11.04
2024-04-19T16:06:13.273Z,11.15
2024-04-19T16:09:00.342Z,10.92
2024-04-19T16:11:47.440Z,10.78
2024-04-19T16:14:34.434Z,10.89
2024-04-19T16:17:22.253Z,10.75
2024-04-19T16:20:10.822Z,10.73
2024-04-19T16:22:58.865Z,10.48
2024-04-19T16:25:46.032Z,10.68
2024-04-19T16:28:33.176Z,10.55
2024-04-19T16:31:20.539Z,10.51
2024-04-19T16:34:10.099Z,10.46
2024-04-19T16:37:06.814Z,10.64
2024-04-19T16:39:54.902Z,10.74
2024-04-19T16:42:42.313Z,10.29
2024-04-19T16:45:31.550Z,10.59
2024-04-19T16:48:29.458Z,10.46
2024-04-19T16:51:31.700Z,10.45
2024-04-19T16:54:27.374Z,10.24
2024-04-19T16:57:16.178Z,9.95
2024-04-19T17:00:03.380Z,10.31
2024-04-19T17:02:51.556Z,9.74
2024-04-19T17:05:44.983Z,9.79
2024-04-19T17:08:34.684Z,10.01
2024-04-19T17:11:21.816Z,9.61
2024-04-19T17:14:14.510Z,9.76
2024-04-19T17:17:06.108Z,9.82
2024-04-19T17:19:54.273Z,9.74
2024-04-19T17:22:41.688Z,9.56
2024-04-19T17:25:32.828Z,9.62
2024-04-19T17:28:20.456Z,9.57
2024-04-19T17:31:08.859Z,9.53
2024-04-19T17:34:06.534Z,9.81
2024-04-19T17:37:01.442Z,9.62
2024-04-19T17:39:48.504Z,9.62
2024-04-19T17:42:37.186Z,9.76
2024-04-19T17:45:24.466Z,9.48
2024-04-19T17:48:14.155Z,9.35
2024-04-19T17:51:15.318Z,9.45
2024-04-19T17:54:02.552Z,9.52
2024-04-19T17:56:58.123Z,9.57
2024-04-19T17:59:46.185Z,9.41
2024-04-19T18:02:36.769Z,9.41
2024-04-19T18:05:27.880Z,9.07
2024-04-19T18:08:38.209Z,9.55
2024-04-19T18:11:25.757Z,9.43
2024-04-19T18:14:12.842Z,9.28
2024-04-19T18:17:00.187Z,9.33
2024-04-19T18:19:47.295Z,8.86
2024-04-19T18:22:36.244Z,9.22
2024-04-19T18:25:25.403Z,9.21
2024-04-19T18:28:12.462Z,9.18
2024-04-19T18:31:00.896Z,9.13
2024-04-19T18:33:48.101Z,9.22
2024-04-19T18:36:39.736Z,9.10
2024-04-19T18:39:30.761Z,9.12
2024-04-19T18:42:18.373Z,9.13
2024-04-19T18:45:05.835Z,9.12
2024-04-19T18:47:55.862Z,8.99
2024-04-19T18:50:43.019Z,9.00
2024-04-19T18:53:30.670Z,9.16
2024-04-19T18:56:18.037Z,9.25
2024-04-19T18:59:05.062Z,9.29
2024-04-19T19:01:55.348Z,9.16
2024-04-19T19:04:42.579Z,9.03
2024-04-19T19:07:30.111Z,8.74
2024-04-19T19:10:18.230Z,9.12
2024-04-19T19:13:08.229Z,9.25
2024-04-19T19:15:56.815Z,8.93
2024-04-19T19:18:44.122Z,9.13
2024-04-19T19:21:35.054Z,9.10
2024-04-19T19:24:22.426Z,9.14
2024-04-19T19:27:12.732Z,9.04
2024-04-19T19:29:59.990Z,9.23
2024-04-19T19:32:50.383Z,8.91
2024-04-19T19:35:41.416Z,9.08
2024-04-19T19:38:29.886Z,9.01
2024-04-19T19:41:23.148Z,9.33
2024-04-19T19:44:13.161Z,8.95
2024-04-19T19:47:01.609Z,9.42
2024-04-19T19:49:50.640Z,9.53
2024-04-19T19:52:37.910Z,8.83
2024-04-19T19:55:25.211Z,8.64
2024-04-19T19:58:12.330Z,8.70
2024-04-19T20:01:18.143Z,9.08
2024-04-19T20:04:31.856Z,8.82
2024-04-19T20:07:19.344Z,8.74
2024-04-19T20:10:06.768Z,8.79
2024-04-19T20:12:54.028Z,8.97
2024-04-19T20:15:45.395Z,9.03
2024-04-19T20:18:33.287Z,8.79
2024-04-19T20:21:20.428Z,8.76
2024-04-19T20:24:07.460Z,8.98
2024-04-19T20:26:54.399Z,9.20
2024-04-19T20:29:41.355Z,8.87
2024-04-19T20:32:40.423Z,8.84
2024-04-19T20:35:27.516Z,8.64
2024-04-19T20:38:14.645Z,8.99
2024-04-19T20:41:07.384Z,9.35
2024-04-19T20:43:54.419Z,9.10
2024-04-19T20:46:41.594Z,9.23
2024-04-19T20:49:29.206Z,8.98
2024-04-19T20:52:16.752Z,8.89
2024-04-19T20:55:03.912Z,8.95
2024-04-19T20:57:50.978Z,9.06
2024-04-19T21:00:38.496Z,8.80
2024-04-19T21:03:30.920Z,8.86
2024-04-19T21:06:21.678Z,8.86
2024-04-19T21:09:08.831Z,8.92
2024-04-19T21:11:55.892Z,8.74
2024-04-19T21:14:42.995Z,8.87
2024-04-19T21:17:30.111Z,8.77
2024-04-19T21:20:20.248Z,8.95
2024-04-19T21:23:10.104Z,8.60
2024-04-19T21:25:58.275Z,8.74
2024-04-19T21:28:45.648Z,8.95
2024-04-19T21:31:32.849Z,8.73
2024-04-19T21:34:19.901Z,8.47
2024-04-19T21:37:07.041Z,8.63
2024-04-19T21:39:55.479Z,8.65
2024-04-19T21:42:43.179Z,8.52
2024-04-19T21:45:32.200Z,8.74
2024-04-19T21:48:20.413Z,8.64
2024-04-19T21:51:09.878Z,8.83
2024-04-19T21:53:56.912Z,8.91
2024-04-19T21:56:43.979Z,8.95
2024-04-19T21:59:31.228Z,9.00
2024-04-19T22:02:19.184Z,9.15
2024-04-19T22:05:06.407Z,9.05
2024-04-19T22:07:53.397Z,9.11
2024-04-19T22:10:40.484Z,9.02
2024-04-19T22:13:30.482Z,8.80
2024-04-19T22:16:17.791Z,8.75
2024-04-19T22:19:05.064Z,8.78
2024-04-19T22:21:52.292Z,8.62
2024-04-19T22:24:39.772Z,8.88
2024-04-19T22:27:26.913Z,9.12
2024-04-19T22:30:14.015Z,9.10
2024-04-19T22:33:01.314Z,8.75
2024-04-19T22:35:48.348Z,8.68
2024-04-19T22:38:36.929Z,8.44
2024-04-19T22:41:23.948Z,8.52
2024-04-19T22:44:10.937Z,8.71
2024-04-19T22:46:57.973Z,8.56
2024-04-19T22:49:45.232Z,8.61
2024-04-19T22:52:32.359Z,8.51
2024-04-19T22:55:19.440Z,8.57
2024-04-19T22:58:08.572Z,8.67
2024-04-19T23:01:03.412Z,8.87
2024-04-19T23:03:50.718Z,9.05
2024-04-19T23:06:37.927Z,8.62
2024-04-19T23:09:25.028Z,8.77
2024-04-19T23:12:12.063Z,8.67
2024-04-19T23:14:59.240Z,8.30
2024-04-19T23:17:46.456Z,8.55
2024-04-19T23:20:33.566Z,8.30
2024-04-19T23:23:20.631Z,8.59
2024-04-19T23:26:12.940Z,8.64
2024-04-19T23:29:04.636Z,8.47
2024-04-19T23:31:53.216Z,8.23
2024-04-19T23:34:40.229Z,8.43
2024-04-19T23:37:27.267Z,8.41
2024-04-19T23:40:17.542Z,8.29
2024-04-19T23:43:04.794Z,8.57
2024-04-19T23:45:51.988Z,8.47
2024-04-19T23:48:39.002Z,8.58
2024-04-19T23:51:26.197Z,8.42
2024-04-19T23:54:15.205Z,8.52
2024-04-19T23:57:02.443Z,8.48
2024-04-19T23:59:49.447Z,8.15
